createdAt,value
2022-09-22T00:01:35.582Z,12.57
2022-09-22T00:02:35.491Z,12.55
2022-09-22T00:04:39.481Z,12.58
2022-09-22T00:05:39.467Z,12.55
2022-09-22T00:07:32.414Z,12.53
2022-09-22T00:08:32.368Z,12.55
2022-09-22T00:10:36.357Z,12.49
2022-09-22T00:11:36.486Z,12.49
2022-09-22T00:13:40.369Z,12.53
2022-09-22T00:14:40.333Z,12.43
2022-09-22T00:16:44.447Z,12.46
2022-09-22T00:17:44.325Z,12.45
2022-09-22T00:19:48.313Z,12.49
2022-09-22T00:20:48.301Z,12.39
2022-09-22T00:22:52.316Z,12.37
2022-09-22T00:23:52.272Z,12.35
2022-09-22T00:25:56.261Z,12.35
2022-09-22T00:26:56.261Z,12.32
2022-09-22T00:29:00.279Z,12.32
2022-09-22T00:30:00.243Z,12.31
2022-09-22T00:32:07.423Z,12.31
2022-09-22T00:33:04.237Z,12.31
2022-09-22T00:34:04.220Z,12.32
2022-09-22T00:35:04.212Z,12.24
2022-09-22T00:36:04.213Z,12.27
2022-09-22T00:37:04.201Z,12.25
2022-09-22T00:38:04.192Z,12.21
2022-09-22T00:39:04.235Z,12.21
2022-09-22T00:40:04.245Z,12.20
2022-09-22T00:41:04.191Z,12.12
2022-09-22T00:42:04.180Z,12.17
2022-09-22T00:43:04.180Z,12.13
2022-09-22T00:44:04.178Z,12.10
2022-09-22T00:45:04.177Z,12.12
2022-09-22T00:46:04.184Z,12.12
2022-09-22T00:47:04.278Z,12.06
2022-09-22T00:48:04.161Z,12.10
2022-09-22T00:49:04.186Z,11.99
2022-09-22T00:50:04.202Z,11.99
2022-09-22T00:51:04.165Z,12.00
2022-09-22T00:52:04.206Z,12.04
2022-09-22T00:53:04.143Z,12.06
2022-09-22T00:54:04.138Z,11.97
2022-09-22T00:55:04.134Z,12.02
2022-09-22T00:56:04.141Z,11.91
2022-09-22T00:57:04.127Z,11.91
2022-09-22T00:58:04.124Z,11.99
2022-09-22T00:59:04.130Z,11.90
2022-09-22T01:00:04.119Z,11.95
2022-09-22T01:01:04.210Z,11.94
2022-09-22T01:02:04.133Z,11.95
2022-09-22T01:03:04.112Z,11.97
2022-09-22T01:04:04.103Z,11.91
2022-09-22T01:05:04.103Z,11.95
2022-09-22T01:06:04.094Z,11.95
2022-09-22T01:07:04.106Z,11.87
2022-09-22T01:08:04.097Z,11.97
2022-09-22T01:09:04.098Z,11.95
2022-09-22T01:10:04.104Z,11.94
2022-09-22T01:11:04.076Z,11.91
2022-09-22T01:12:04.085Z,11.88
2022-09-22T01:13:04.077Z,11.83
2022-09-22T01:14:04.068Z,11.90
2022-09-22T01:15:04.068Z,11.90
2022-09-22T01:16:04.153Z,11.80
2022-09-22T01:17:04.066Z,11.88
2022-09-22T01:18:04.056Z,11.84
2022-09-22T01:19:04.074Z,11.83
2022-09-22T01:20:04.048Z,11.83
2022-09-22T01:21:04.046Z,11.86
2022-09-22T01:22:04.049Z,11.86
2022-09-22T01:23:04.052Z,11.83
2022-09-22T01:24:04.065Z,11.81
2022-09-22T01:25:04.041Z,11.87
2022-09-22T01:26:04.031Z,11.81
2022-09-22T01:27:04.036Z,11.78
2022-09-22T01:28:04.019Z,11.77
2022-09-22T01:29:04.014Z,11.75
2022-09-22T01:30:04.013Z,11.73
2022-09-22T01:31:04.048Z,11.70
2022-09-22T01:32:04.005Z,11.63
2022-09-22T01:33:04.000Z,11.75
2022-09-22T01:34:04.011Z,11.77
2022-09-22T01:35:03.995Z,11.70
2022-09-22T01:36:03.993Z,11.69
2022-09-22T01:37:03.994Z,11.62
2022-09-22T01:38:03.985Z,11.78
2022-09-22T01:39:03.984Z,11.68
2022-09-22T01:40:04.021Z,11.65
2022-09-22T01:41:03.968Z,11.62
2022-09-22T01:42:03.977Z,11.63
2022-09-22T01:43:03.963Z,11.80
2022-09-22T01:44:03.962Z,11.70
2022-09-22T01:45:03.980Z,11.57
2022-09-22T01:46:03.964Z,11.69
2022-09-22T01:47:03.955Z,11.59
2022-09-22T01:48:03.944Z,11.68
2022-09-22T01:49:03.938Z,11.70
2022-09-22T01:50:03.936Z,11.68
2022-09-22T01:51:03.942Z,11.68
2022-09-22T01:52:03.945Z,11.62
2022-09-22T01:53:03.941Z,11.66
2022-09-22T01:54:03.936Z,11.72
2022-09-22T01:55:03.928Z,11.70
2022-09-22T01:56:03.907Z,11.66
2022-09-22T01:57:03.930Z,11.68
2022-09-22T01:58:03.901Z,11.69
2022-09-22T01:59:03.906Z,11.66
2022-09-22T02:00:03.900Z,11.66
2022-09-22T02:01:03.913Z,11.65
2022-09-22T02:02:03.960Z,11.63
2022-09-22T02:03:03.898Z,11.63
2022-09-22T02:04:03.896Z,11.52
2022-09-22T02:05:03.904Z,11.54
2022-09-22T02:06:03.890Z,11.57
2022-09-22T02:07:03.883Z,11.57
2022-09-22T02:08:03.862Z,11.60
2022-09-22T02:09:03.898Z,11.57
2022-09-22T02:10:03.877Z,11.59
2022-09-22T02:11:03.868Z,11.62
2022-09-22T02:12:03.859Z,11.62
2022-09-22T02:13:03.866Z,11.55
2022-09-22T02:14:03.854Z,11.59
2022-09-22T02:15:03.843Z,11.57
2022-09-22T02:16:03.950Z,11.52
2022-09-22T02:17:03.828Z,11.52
2022-09-22T02:18:03.822Z,11.50
2022-09-22T02:19:12.362Z,11.45
2022-09-22T02:20:03.818Z,11.47
2022-09-22T02:21:03.815Z,11.47
2022-09-22T02:22:03.808Z,11.45
2022-09-22T02:23:03.832Z,11.44
2022-09-22T02:24:03.808Z,11.44
2022-09-22T02:25:03.803Z,11.50
2022-09-22T02:26:03.799Z,11.36
2022-09-22T02:27:03.798Z,11.37
2022-09-22T02:28:03.790Z,11.36
2022-09-22T02:29:03.783Z,11.44
2022-09-22T02:30:03.776Z,11.40
2022-09-22T02:31:19.637Z,11.36
2022-09-22T02:32:03.900Z,11.30
2022-09-22T02:33:03.769Z,11.33
2022-09-22T02:34:03.769Z,11.33
2022-09-22T02:35:03.766Z,11.37
2022-09-22T02:36:03.751Z,11.35
2022-09-22T02:37:03.780Z,11.32
2022-09-22T02:38:03.754Z,11.27
2022-09-22T02:39:03.766Z,11.32
2022-09-22T02:40:03.852Z,11.26
2022-09-22T02:41:03.756Z,11.23
2022-09-22T02:42:03.762Z,11.23
2022-09-22T02:43:03.769Z,11.25
2022-09-22T02:44:03.752Z,11.26
2022-09-22T02:45:03.717Z,11.25
2022-09-22T02:46:03.756Z,11.19
2022-09-22T02:47:03.708Z,11.22
2022-09-22T02:48:03.704Z,11.23
2022-09-22T02:49:03.726Z,11.23
2022-09-22T02:50:03.697Z,11.23
2022-09-22T02:51:03.697Z,11.17
2022-09-22T02:52:03.721Z,11.22
2022-09-22T02:53:03.689Z,11.08
2022-09-22T02:54:03.689Z,11.17
2022-09-22T02:55:03.675Z,11.18
2022-09-22T02:56:03.674Z,11.14
2022-09-22T02:57:03.673Z,11.26
2022-09-22T02:58:03.675Z,11.27
2022-09-22T02:59:03.661Z,11.26
2022-09-22T03:00:03.659Z,11.23
2022-09-22T03:01:03.653Z,11.23
2022-09-22T03:02:03.655Z,11.23
2022-09-22T03:03:03.641Z,11.29
2022-09-22T03:04:03.642Z,11.17
2022-09-22T03:05:03.798Z,11.11
2022-09-22T03:06:03.626Z,11.14
2022-09-22T03:07:03.636Z,11.10
2022-09-22T03:08:03.620Z,11.22
2022-09-22T03:09:03.617Z,11.18
2022-09-22T03:10:03.623Z,11.14
2022-09-22T03:11:03.622Z,11.02
2022-09-22T03:12:03.608Z,11.12
2022-09-22T03:13:15.936Z,11.07
2022-09-22T03:14:03.606Z,11.07
2022-09-22T03:15:03.599Z,11.05
2022-09-22T03:16:03.623Z,11.05
2022-09-22T03:17:03.601Z,11.05
2022-09-22T03:18:03.583Z,11.05
2022-09-22T03:19:03.571Z,11.10
2022-09-22T03:20:03.578Z,11.11
2022-09-22T03:21:03.565Z,11.04
2022-09-22T03:22:03.567Z,11.04
2022-09-22T03:23:03.556Z,11.00
2022-09-22T03:24:03.552Z,11.05
2022-09-22T03:25:03.554Z,11.07
2022-09-22T03:26:03.550Z,11.11
2022-09-22T03:27:03.556Z,11.10
2022-09-22T03:28:03.549Z,10.93
2022-09-22T03:29:03.543Z,10.94
2022-09-22T03:30:03.529Z,11.02
2022-09-22T03:31:03.530Z,10.99
2022-09-22T03:32:03.524Z,10.97
2022-09-22T03:33:03.522Z,10.92
2022-09-22T03:34:03.514Z,10.96
2022-09-22T03:35:03.526Z,10.94
2022-09-22T03:36:03.516Z,11.00
2022-09-22T03:37:03.510Z,10.99
2022-09-22T03:38:03.516Z,10.97
2022-09-22T03:39:03.498Z,11.02
2022-09-22T03:40:03.517Z,10.97
2022-09-22T03:41:03.485Z,10.99
2022-09-22T03:42:03.476Z,10.94
2022-09-22T03:43:03.483Z,10.92
2022-09-22T03:44:03.470Z,10.86
2022-09-22T03:45:03.474Z,10.87
2022-09-22T03:46:03.555Z,10.82
2022-09-22T03:47:03.477Z,10.87
2022-09-22T03:48:03.466Z,10.89
2022-09-22T03:49:03.446Z,10.89
2022-09-22T03:50:03.453Z,10.84
2022-09-22T03:51:03.446Z,10.79
2022-09-22T03:52:03.437Z,10.81
2022-09-22T03:53:03.436Z,10.82
2022-09-22T03:54:03.438Z,10.76
2022-09-22T03:55:03.418Z,10.76
2022-09-22T03:56:03.420Z,10.75
2022-09-22T03:57:03.415Z,10.86
2022-09-22T03:58:03.415Z,10.79
2022-09-22T03:59:03.415Z,10.78
2022-09-22T04:00:03.398Z,10.89
2022-09-22T04:01:03.471Z,10.71
2022-09-22T04:02:03.479Z,10.74
2022-09-22T04:03:03.405Z,10.89
2022-09-22T04:04:03.382Z,10.74
2022-09-22T04:05:03.387Z,10.75
2022-09-22T04:06:03.376Z,10.76
2022-09-22T04:07:07.144Z,10.76
2022-09-22T04:08:03.367Z,10.76
2022-09-22T04:09:03.360Z,10.87
2022-09-22T04:10:03.361Z,10.87
2022-09-22T04:11:03.363Z,10.82
2022-09-22T04:12:03.345Z,10.76
2022-09-22T04:13:03.373Z,10.74
2022-09-22T04:14:03.360Z,10.79
2022-09-22T04:15:03.332Z,10.75
2022-09-22T04:16:03.326Z,10.75
2022-09-22T04:17:03.372Z,10.74
2022-09-22T04:18:03.327Z,10.74
2022-09-22T04:19:03.325Z,10.78
2022-09-22T04:20:03.327Z,10.78
2022-09-22T04:21:03.306Z,10.74
2022-09-22T04:22:03.305Z,10.72
2022-09-22T04:23:03.317Z,10.76
2022-09-22T04:24:03.290Z,10.74
2022-09-22T04:25:03.294Z,10.79
2022-09-22T04:26:03.287Z,10.78
2022-09-22T04:27:20.275Z,10.75
2022-09-22T04:28:05.575Z,10.71
2022-09-22T04:29:03.271Z,10.68
2022-09-22T04:30:03.266Z,10.68
2022-09-22T04:31:03.385Z,10.76
2022-09-22T04:32:03.287Z,10.68
2022-09-22T04:33:03.260Z,10.69
2022-09-22T04:34:07.532Z,10.67
2022-09-22T04:35:03.251Z,10.60
2022-09-22T04:36:03.247Z,10.69
2022-09-22T04:37:03.263Z,10.57
2022-09-22T04:38:03.231Z,10.67
2022-09-22T04:39:03.233Z,10.59
2022-09-22T04:40:03.276Z,10.59
2022-09-22T04:41:03.250Z,10.57
2022-09-22T04:42:03.241Z,10.57
2022-09-22T04:43:03.219Z,10.61
2022-09-22T04:44:03.206Z,10.59
2022-09-22T04:45:03.211Z,10.67
2022-09-22T04:46:03.283Z,10.63
2022-09-22T04:47:03.203Z,10.64
2022-09-22T04:48:03.203Z,10.67
2022-09-22T04:49:03.187Z,10.63
2022-09-22T04:50:03.209Z,10.61
2022-09-22T04:51:03.204Z,10.59
2022-09-22T04:52:03.173Z,10.63
2022-09-22T04:53:03.163Z,10.61
2022-09-22T04:54:03.163Z,10.63
2022-09-22T04:55:03.154Z,10.54
2022-09-22T04:56:03.157Z,10.54
2022-09-22T04:57:03.168Z,10.54
2022-09-22T04:58:03.167Z,10.48
2022-09-22T04:59:03.139Z,10.59
2022-09-22T05:00:03.163Z,10.60
2022-09-22T05:01:03.236Z,10.63
2022-09-22T05:02:03.180Z,10.57
2022-09-22T05:03:03.170Z,10.60
2022-09-22T05:04:03.121Z,10.57
2022-09-22T05:05:03.130Z,10.59
2022-09-22T05:06:03.172Z,10.57
2022-09-22T05:07:03.101Z,10.54
2022-09-22T05:08:03.099Z,10.60
2022-09-22T05:09:03.096Z,10.61
2022-09-22T05:10:03.088Z,10.57
2022-09-22T05:11:03.083Z,10.54
2022-09-22T05:12:03.081Z,10.46
2022-09-22T05:13:03.089Z,10.48
2022-09-22T05:14:03.070Z,10.54
2022-09-22T05:15:03.070Z,10.61
2022-09-22T05:16:03.166Z,10.57
2022-09-22T05:17:03.055Z,10.54
2022-09-22T05:18:03.044Z,10.49
2022-09-22T05:19:03.049Z,10.53
2022-09-22T05:20:03.045Z,10.53
2022-09-22T05:21:03.035Z,10.48
2022-09-22T05:22:03.063Z,10.44
2022-09-22T05:23:03.035Z,10.48
2022-09-22T05:24:03.026Z,10.42
2022-09-22T05:25:03.040Z,10.40
2022-09-22T05:26:03.022Z,10.41
2022-09-22T05:27:03.016Z,10.46
2022-09-22T05:28:03.009Z,10.46
2022-09-22T05:29:02.996Z,10.49
2022-09-22T05:30:02.996Z,10.41
2022-09-22T05:31:02.989Z,10.37
2022-09-22T05:32:03.072Z,10.38
2022-09-22T05:33:02.982Z,10.46
2022-09-22T05:34:02.985Z,10.48
2022-09-22T05:35:02.969Z,10.54
2022-09-22T05:36:02.978Z,10.67
2022-09-22T05:37:02.963Z,10.75
2022-09-22T05:38:02.973Z,10.74
2022-09-22T05:39:02.959Z,10.74
2022-09-22T05:40:03.025Z,10.69
2022-09-22T05:41:02.970Z,10.69
2022-09-22T05:42:05.392Z,10.67
2022-09-22T05:43:02.975Z,10.59
2022-09-22T05:44:02.945Z,10.63
2022-09-22T05:45:02.926Z,10.57
2022-09-22T05:46:03.097Z,10.63
2022-09-22T05:47:02.919Z,10.57
2022-09-22T05:48:02.926Z,10.63
2022-09-22T05:49:02.921Z,10.64
2022-09-22T05:50:03.025Z,10.54
2022-09-22T05:51:02.911Z,10.49
2022-09-22T05:52:02.902Z,10.54
2022-09-22T05:53:02.891Z,10.61
2022-09-22T05:54:02.902Z,10.64
2022-09-22T05:55:02.905Z,10.63
2022-09-22T05:56:02.887Z,10.57
2022-09-22T05:57:02.878Z,10.72
2022-09-22T05:58:02.914Z,10.72
2022-09-22T05:59:02.877Z,10.78
2022-09-22T06:00:02.879Z,10.75
2022-09-22T06:01:02.892Z,10.76
2022-09-22T06:02:13.375Z,10.78
2022-09-22T06:03:02.924Z,10.72
2022-09-22T06:04:02.848Z,10.76
2022-09-22T06:05:02.851Z,10.76
2022-09-22T06:06:02.836Z,10.78
2022-09-22T06:07:02.836Z,10.84
2022-09-22T06:08:02.845Z,10.76
2022-09-22T06:09:02.824Z,10.79
2022-09-22T06:10:02.829Z,10.79
2022-09-22T06:11:02.817Z,10.81
2022-09-22T06:12:02.866Z,10.81
2022-09-22T06:13:02.808Z,10.92
2022-09-22T06:14:02.802Z,10.81
2022-09-22T06:15:02.800Z,10.87
2022-09-22T06:16:02.819Z,10.82
2022-09-22T06:17:02.789Z,10.96
2022-09-22T06:18:02.792Z,10.87
2022-09-22T06:19:02.790Z,10.84
2022-09-22T06:20:02.793Z,10.92
2022-09-22T06:21:02.776Z,10.92
2022-09-22T06:22:02.771Z,10.94
2022-09-22T06:23:02.761Z,10.89
2022-09-22T06:24:02.769Z,10.99
2022-09-22T06:25:02.763Z,10.93
2022-09-22T06:26:02.752Z,10.93
2022-09-22T06:27:02.755Z,10.94
2022-09-22T06:28:02.750Z,10.90
2022-09-22T06:29:02.745Z,11.07
2022-09-22T06:30:02.762Z,11.02
2022-09-22T06:31:02.733Z,11.00
2022-09-22T06:32:02.747Z,11.07
2022-09-22T06:33:02.745Z,11.07
2022-09-22T06:34:06.923Z,11.07
2022-09-22T06:35:02.730Z,11.07
2022-09-22T06:36:02.720Z,11.10
2022-09-22T06:37:02.712Z,11.17
2022-09-22T06:38:02.702Z,11.18
2022-09-22T06:39:02.728Z,11.14
2022-09-22T06:40:02.736Z,11.22
2022-09-22T06:41:02.702Z,11.18
2022-09-22T06:42:02.695Z,11.27
2022-09-22T06:43:02.697Z,11.19
2022-09-22T06:44:02.682Z,11.35
2022-09-22T06:45:02.719Z,11.29
2022-09-22T06:46:02.765Z,11.35
2022-09-22T06:47:02.679Z,11.32
2022-09-22T06:48:06.318Z,11.43
2022-09-22T06:49:02.674Z,11.35
2022-09-22T06:50:02.666Z,11.50
2022-09-22T06:51:02.655Z,11.50
2022-09-22T06:52:02.650Z,11.44
2022-09-22T06:53:02.634Z,11.57
2022-09-22T06:54:02.643Z,11.52
2022-09-22T06:55:02.643Z,11.65
2022-09-22T06:56:02.627Z,11.60
2022-09-22T06:57:02.628Z,11.57
2022-09-22T06:58:02.626Z,11.68
2022-09-22T06:59:10.818Z,11.62
2022-09-22T07:00:02.619Z,11.73
2022-09-22T07:01:05.188Z,11.66
2022-09-22T07:02:02.698Z,11.72
2022-09-22T07:03:02.622Z,11.72
2022-09-22T07:04:02.603Z,11.75
2022-09-22T07:05:02.600Z,11.73
2022-09-22T07:06:02.593Z,11.77
2022-09-22T07:07:02.596Z,11.84
2022-09-22T07:08:02.593Z,11.88
2022-09-22T07:09:02.603Z,11.77
2022-09-22T07:10:02.588Z,11.81
2022-09-22T07:11:02.594Z,11.99
2022-09-22T07:12:02.569Z,11.91
2022-09-22T07:13:02.589Z,12.03
2022-09-22T07:14:02.567Z,11.99
2022-09-22T07:15:02.567Z,12.12
2022-09-22T07:16:02.585Z,12.15
2022-09-22T07:17:02.565Z,12.22
2022-09-22T07:18:02.565Z,12.36
2022-09-22T07:19:02.545Z,12.35
2022-09-22T07:20:02.541Z,12.39
2022-09-22T07:21:02.547Z,12.47
2022-09-22T07:22:02.552Z,12.61
2022-09-22T07:23:02.570Z,12.75
2022-09-22T07:24:02.545Z,12.91
2022-09-22T07:25:02.531Z,13.22
2022-09-22T07:26:02.525Z,13.44
2022-09-22T07:27:02.522Z,13.68
2022-09-22T07:28:02.521Z,13.99
2022-09-22T07:29:02.552Z,14.36
2022-09-22T07:30:02.583Z,14.72
2022-09-22T07:31:02.513Z,14.97
2022-09-22T07:32:02.606Z,15.44
2022-09-22T07:33:02.531Z,15.70
2022-09-22T07:34:02.522Z,16.00
2022-09-22T07:35:02.512Z,16.26
2022-09-22T07:36:02.525Z,16.65
2022-09-22T07:37:02.540Z,16.76
2022-09-22T07:38:02.562Z,17.05
2022-09-22T07:39:02.564Z,17.15
2022-09-22T07:40:02.615Z,17.45
2022-09-22T07:41:02.561Z,17.64
2022-09-22T07:42:02.562Z,17.95
2022-09-22T07:43:02.577Z,18.07
2022-09-22T07:44:02.578Z,18.16
2022-09-22T07:45:02.605Z,18.28
2022-09-22T07:46:02.603Z,18.44
2022-09-22T07:47:02.697Z,18.52
2022-09-22T07:48:02.609Z,18.65
2022-09-22T07:49:02.636Z,18.78
2022-09-22T07:50:02.651Z,18.92
2022-09-22T07:51:02.657Z,18.92
2022-09-22T07:52:02.662Z,18.95
2022-09-22T07:53:02.671Z,19.07
2022-09-22T07:54:02.677Z,19.07
2022-09-22T07:55:02.703Z,19.11
2022-09-22T07:56:02.702Z,19.14
2022-09-22T07:57:02.728Z,19.29
2022-09-22T07:58:02.755Z,19.40
2022-09-22T07:59:02.752Z,19.47
2022-09-22T08:00:02.767Z,19.47
2022-09-22T08:01:02.924Z,19.52
2022-09-22T08:02:02.826Z,19.55
2022-09-22T08:03:02.797Z,19.67
2022-09-22T08:04:02.821Z,19.81
2022-09-22T08:05:02.837Z,19.88
2022-09-22T08:06:06.103Z,19.94
2022-09-22T08:07:02.872Z,19.73
2022-09-22T08:08:02.860Z,19.77
2022-09-22T08:09:02.892Z,19.74
2022-09-22T08:10:02.890Z,19.67
2022-09-22T08:11:02.899Z,19.74
2022-09-22T08:12:02.917Z,19.69
2022-09-22T08:13:02.953Z,19.59
2022-09-22T08:14:02.955Z,19.56
2022-09-22T08:15:02.970Z,19.49
2022-09-22T08:16:03.057Z,19.41
2022-09-22T08:17:02.983Z,19.29
2022-09-22T08:18:02.999Z,19.15
2022-09-22T08:19:03.019Z,19.02
2022-09-22T08:20:03.037Z,19.08
2022-09-22T08:21:03.050Z,18.93
2022-09-22T08:22:03.053Z,18.96
2022-09-22T08:23:03.343Z,18.92
2022-09-22T08:24:03.094Z,18.93
2022-09-22T08:25:03.097Z,18.86
2022-09-22T08:26:03.121Z,18.84
2022-09-22T08:27:03.118Z,18.89
2022-09-22T08:28:03.196Z,18.83
2022-09-22T08:29:03.155Z,18.84
2022-09-22T08:30:03.154Z,18.77
2022-09-22T08:31:03.268Z,18.81
2022-09-22T08:32:03.192Z,18.78
2022-09-22T08:33:03.210Z,18.77
2022-09-22T08:34:03.233Z,18.66
2022-09-22T08:35:03.253Z,18.70
2022-09-22T08:36:03.252Z,18.74
2022-09-22T08:37:03.229Z,18.70
2022-09-22T08:38:03.246Z,18.81
2022-09-22T08:39:03.245Z,18.75
2022-09-22T08:40:03.334Z,18.77
2022-09-22T08:41:03.279Z,18.80
2022-09-22T08:42:03.318Z,18.55
2022-09-22T08:43:03.291Z,18.55
2022-09-22T08:44:03.293Z,18.52
2022-09-22T08:45:03.330Z,18.49
2022-09-22T08:46:03.303Z,18.58
2022-09-22T08:47:03.312Z,18.58
2022-09-22T08:48:03.351Z,18.49
2022-09-22T08:49:03.323Z,18.41
2022-09-22T08:50:03.337Z,18.34
2022-09-22T08:51:03.344Z,18.44
2022-09-22T08:52:03.338Z,18.35
2022-09-22T08:53:03.364Z,18.16
2022-09-22T08:54:03.850Z,18.08
2022-09-22T08:55:03.358Z,17.86
2022-09-22T08:56:03.367Z,17.68
2022-09-22T08:57:03.364Z,17.59
2022-09-22T08:58:03.415Z,17.59
2022-09-22T08:59:03.378Z,17.52
2022-09-22T09:00:03.407Z,17.39
2022-09-22T09:01:03.372Z,17.36
2022-09-22T09:02:03.412Z,17.41
2022-09-22T09:03:03.408Z,17.46
2022-09-22T09:04:03.433Z,17.54
2022-09-22T09:05:03.389Z,17.70
2022-09-22T09:06:03.395Z,17.74
2022-09-22T09:07:03.391Z,17.72
2022-09-22T09:08:03.403Z,17.85
2022-09-22T09:09:05.319Z,17.94
2022-09-22T09:10:03.392Z,17.87
2022-09-22T09:11:03.411Z,17.89
2022-09-22T09:12:03.413Z,17.87
2022-09-22T09:13:03.406Z,17.87
2022-09-22T09:14:03.401Z,17.86
2022-09-22T09:15:03.407Z,17.86
2022-09-22T09:16:03.463Z,17.95
2022-09-22T09:17:03.413Z,17.89
2022-09-22T09:18:03.414Z,17.97
2022-09-22T09:19:03.420Z,18.00
2022-09-22T09:20:03.418Z,17.95
2022-09-22T09:21:03.415Z,17.94
2022-09-22T09:22:03.426Z,17.95
2022-09-22T09:23:03.432Z,17.94
2022-09-22T09:26:03.422Z,17.94
2022-09-22T09:27:03.430Z,17.94
2022-09-22T09:28:03.420Z,17.97
2022-09-22T09:29:04.133Z,17.98
2022-09-22T09:30:03.433Z,17.98
2022-09-22T09:31:03.468Z,17.98
2022-09-22T09:32:03.437Z,18.00
2022-09-22T09:33:03.449Z,18.03
2022-09-22T09:34:03.436Z,17.97
2022-09-22T09:35:06.545Z,17.97
2022-09-22T09:36:03.503Z,17.98
2022-09-22T09:37:03.432Z,17.94
2022-09-22T09:38:03.452Z,17.94
2022-09-22T09:39:03.444Z,17.98
2022-09-22T09:40:03.517Z,18.03
2022-09-22T09:41:03.447Z,18.00
2022-09-22T09:42:03.455Z,17.97
2022-09-22T09:43:03.616Z,17.95
2022-09-22T09:44:03.462Z,17.97
2022-09-22T09:45:03.472Z,18.00
2022-09-22T09:46:03.482Z,18.00
2022-09-22T09:47:03.466Z,18.04
2022-09-22T09:48:03.449Z,18.00
2022-09-22T09:49:03.449Z,17.98
2022-09-22T09:50:03.458Z,17.97
2022-09-22T09:51:03.464Z,17.95
2022-09-22T09:52:03.450Z,17.97
2022-09-22T09:53:04.304Z,17.92
2022-09-22T09:54:03.445Z,17.89
2022-09-22T09:55:03.470Z,17.94
2022-09-22T09:56:03.456Z,17.79
2022-09-22T09:57:03.463Z,17.85
2022-09-22T09:58:03.451Z,17.78
2022-09-22T09:59:03.465Z,17.79
2022-09-22T10:00:03.475Z,17.80
2022-09-22T10:01:03.470Z,17.76
2022-09-22T10:02:03.455Z,17.72
2022-09-22T10:03:03.458Z,17.74
2022-09-22T10:04:03.509Z,17.76
2022-09-22T10:05:03.487Z,17.60
2022-09-22T10:06:03.499Z,17.57
2022-09-22T10:07:03.457Z,17.46
2022-09-22T10:08:03.469Z,17.48
2022-09-22T10:09:03.480Z,17.42
2022-09-22T10:10:03.477Z,17.46
2022-09-22T10:11:03.464Z,17.48
2022-09-22T10:12:03.461Z,17.38
2022-09-22T10:13:03.521Z,17.36
2022-09-22T10:14:03.459Z,17.34
2022-09-22T10:15:03.469Z,17.27
2022-09-22T10:16:03.493Z,17.31
2022-09-22T10:17:03.468Z,17.26
2022-09-22T10:18:03.483Z,17.22
2022-09-22T10:19:03.473Z,17.23
2022-09-22T10:22:09.466Z,17.19
2022-09-22T10:23:09.474Z,17.27
2022-09-22T10:25:13.452Z,17.08
2022-09-22T10:26:13.422Z,16.79
2022-09-22T10:27:13.415Z,16.74
2022-09-22T10:28:13.414Z,16.76
2022-09-22T10:29:13.420Z,16.64
2022-09-22T10:30:13.466Z,16.57
2022-09-22T10:31:13.438Z,16.57
2022-09-22T10:32:13.417Z,16.54
2022-09-22T10:33:13.417Z,16.54
2022-09-22T10:34:13.422Z,16.46
2022-09-22T10:35:13.414Z,16.46
2022-09-22T10:36:13.425Z,16.41
2022-09-22T10:37:13.431Z,16.33
2022-09-22T10:38:20.590Z,16.33
2022-09-22T10:40:17.513Z,16.24
2022-09-22T10:41:17.421Z,16.17
2022-09-22T10:43:21.435Z,16.10
2022-09-22T10:44:38.182Z,16.10
2022-09-22T10:45:21.400Z,15.98
2022-09-22T10:46:21.477Z,16.00
2022-09-22T10:47:26.171Z,16.01
2022-09-22T10:48:21.413Z,15.95
2022-09-22T10:49:21.400Z,15.98
2022-09-22T10:50:21.389Z,15.83
2022-09-22T10:51:21.392Z,15.90
2022-09-22T10:52:21.419Z,15.88
2022-09-22T10:53:21.394Z,15.94
2022-09-22T10:54:21.409Z,15.80
2022-09-22T10:55:21.396Z,15.83
2022-09-22T10:56:21.392Z,15.80
2022-09-22T10:57:21.401Z,15.77
2022-09-22T10:58:21.392Z,15.88
2022-09-22T10:59:21.387Z,15.79
2022-09-22T11:00:21.386Z,15.88
2022-09-22T11:01:21.427Z,15.77
2022-09-22T11:02:21.384Z,15.83
2022-09-22T11:03:21.387Z,15.86
2022-09-22T11:04:21.431Z,15.86
2022-09-22T11:05:21.390Z,15.91
2022-09-22T11:06:21.390Z,15.84
2022-09-22T11:07:21.378Z,15.84
2022-09-22T11:08:21.383Z,15.82
2022-09-22T11:09:21.387Z,15.86
2022-09-22T11:10:21.386Z,15.83
2022-09-22T11:11:21.388Z,15.88
2022-09-22T11:12:21.379Z,15.86
2022-09-22T11:13:21.376Z,15.83
2022-09-22T11:14:21.375Z,15.77
2022-09-22T11:15:21.378Z,15.79
2022-09-22T11:16:21.382Z,15.75
2022-09-22T11:17:21.370Z,15.76
2022-09-22T11:18:21.379Z,15.73
2022-09-22T11:19:21.376Z,15.67
2022-09-22T11:20:21.371Z,15.73
2022-09-22T11:21:21.373Z,15.64
2022-09-22T11:22:21.372Z,15.65
2022-09-22T11:23:21.386Z,15.68
2022-09-22T11:24:21.373Z,15.67
2022-09-22T11:25:21.384Z,15.70
2022-09-22T11:26:21.370Z,15.62
2022-09-22T11:27:21.362Z,15.73
2022-09-22T11:28:21.386Z,15.75
2022-09-22T11:29:21.382Z,15.76
2022-09-22T11:30:21.366Z,15.77
2022-09-22T11:31:21.362Z,15.72
2022-09-22T11:32:21.356Z,15.75
2022-09-22T11:33:21.408Z,15.76
2022-09-22T11:34:21.374Z,15.79
2022-09-22T11:35:21.356Z,15.79
2022-09-22T11:36:21.351Z,15.77
2022-09-22T11:37:21.368Z,15.79
2022-09-22T11:38:21.358Z,15.77
2022-09-22T11:39:21.358Z,15.80
2022-09-22T11:40:21.410Z,15.77
2022-09-22T11:41:21.353Z,15.75
2022-09-22T11:42:21.360Z,15.83
2022-09-22T11:43:21.346Z,15.76
2022-09-22T11:44:21.351Z,15.75
2022-09-22T11:45:21.349Z,15.77
2022-09-22T11:46:21.413Z,15.79
2022-09-22T11:47:21.349Z,15.77
2022-09-22T11:48:21.346Z,15.90
2022-09-22T11:49:21.350Z,15.86
2022-09-22T11:50:21.443Z,15.84
2022-09-22T11:51:21.342Z,15.79
2022-09-22T11:52:21.349Z,15.77
2022-09-22T11:53:21.338Z,15.82
2022-09-22T11:54:21.343Z,15.98
2022-09-22T11:55:21.340Z,15.91
2022-09-22T11:56:21.388Z,15.80
2022-09-22T11:57:21.337Z,15.94
2022-09-22T11:58:21.334Z,15.98
2022-09-22T11:59:21.349Z,15.97
2022-09-22T12:00:21.466Z,15.90
2022-09-22T12:01:21.335Z,15.92
2022-09-22T12:02:21.431Z,16.00
2022-09-22T12:03:21.495Z,15.97
2022-09-22T12:04:21.331Z,16.01
2022-09-22T12:05:21.333Z,16.00
2022-09-22T12:06:21.334Z,16.05
2022-09-22T12:07:21.347Z,16.09
2022-09-22T12:08:21.327Z,16.08
2022-09-22T12:09:21.335Z,15.98
2022-09-22T12:10:21.328Z,16.05
2022-09-22T12:11:21.336Z,16.02
2022-09-22T12:12:21.337Z,16.00
2022-09-22T12:13:21.329Z,15.98
2022-09-22T12:14:21.327Z,16.08
2022-09-22T12:15:21.327Z,15.98
2022-09-22T12:16:21.338Z,16.10
2022-09-22T12:17:23.498Z,16.08
2022-09-22T12:18:21.365Z,16.09
2022-09-22T12:19:21.328Z,16.05
2022-09-22T12:20:21.327Z,16.04
2022-09-22T12:21:21.320Z,16.00
2022-09-22T12:22:21.342Z,16.00
2022-09-22T12:23:21.320Z,16.09
2022-09-22T12:24:21.322Z,16.00
2022-09-22T12:25:44.592Z,16.00
2022-09-22T12:26:21.330Z,16.05
2022-09-22T12:27:21.314Z,16.08
2022-09-22T12:28:21.334Z,16.01
2022-09-22T12:29:21.335Z,16.01
2022-09-22T12:30:21.322Z,15.98
2022-09-22T12:31:21.462Z,16.00
2022-09-22T12:32:21.328Z,15.98
2022-09-22T12:33:21.326Z,16.02
2022-09-22T12:34:21.313Z,16.01
2022-09-22T12:35:21.319Z,15.92
2022-09-22T12:36:21.321Z,15.95
2022-09-22T12:37:21.324Z,15.86
2022-09-22T12:38:21.323Z,15.94
2022-09-22T12:39:21.314Z,15.86
2022-09-22T12:40:21.462Z,15.76
2022-09-22T12:41:21.314Z,15.90
2022-09-22T12:42:21.317Z,15.77
2022-09-22T12:43:21.313Z,15.76
2022-09-22T12:44:21.307Z,15.76
2022-09-22T12:45:21.307Z,15.76
2022-09-22T12:46:21.344Z,15.76
2022-09-22T12:47:21.321Z,15.76
2022-09-22T12:48:21.311Z,15.73
2022-09-22T12:49:21.300Z,15.67
2022-09-22T12:50:21.359Z,15.64
2022-09-22T12:51:21.303Z,15.61
2022-09-22T12:52:21.297Z,15.68
2022-09-22T12:53:21.299Z,15.64
2022-09-22T12:54:21.308Z,15.65
2022-09-22T12:55:21.295Z,15.64
2022-09-22T12:56:21.301Z,15.58
2022-09-22T12:57:21.298Z,15.59
2022-09-22T12:58:21.342Z,15.59
2022-09-22T12:59:21.297Z,15.59
2022-09-22T13:00:21.330Z,15.61
2022-09-22T13:01:21.394Z,15.59
2022-09-22T13:02:21.316Z,15.55
2022-09-22T13:03:21.287Z,15.49
2022-09-22T13:04:21.294Z,15.57
2022-09-22T13:05:21.285Z,15.54
2022-09-22T13:06:21.291Z,15.49
2022-09-22T13:07:21.281Z,15.52
2022-09-22T13:08:21.290Z,15.54
2022-09-22T13:09:21.278Z,15.51
2022-09-22T13:10:21.286Z,15.52
2022-09-22T13:11:21.279Z,15.52